Jackson, MN

18:44 CDT 29. Září 2016 (GMT -0500)
Jackson Municipal | | Change Station

Výška 1447 ft 43.65 °N, 94.99 °W | Updated 9 minutes ago

Clear
Jasno
63 °F
Pocit jako 63 °F
S
4
Vítr proměnlivý Vítr od SV

Dnes
Vysoké -- | Nízké -- °F
--% Možnost srážek
Včera
Vysoké -- | Nízké -- °F
Precip. -- inčů
Tlak 30.38 inčů
Viditelnost 10.0 mílí
Zataženo Jasno
Rosný bod 45 °F
Vlhkost 52%
Dešťové srážky 0.00 inčů
Sněhová pokrývka Není k dispozici
7:15 AM 7:03 PM
Ubývající srpek, 1% visible
METAR KMJQ 292335Z AUTO 05003KT 10SM CLR 17/07 A3038 RMK AO2
Tlak 30.38 inčů
Viditelnost 10.0 mílí
Zataženo Jasno
Rosný bod 45 °F
Vlhkost 52%
Dešťové srážky 0.00 inčů
Sněhová pokrývka Není k dispozici
7:15 AM 7:03 PM
Ubývající srpek, 1% visible
METAR KMJQ 292335Z AUTO 05003KT 10SM CLR 17/07 A3038 RMK AO2

10-Day Weather Forecast

Almanac

Astronomie

Sep. 29, 2016 Východ Západ
Skutečný čas
Občanský soumrak
Námořní soumrak
Astronomický soumrak
Měsíc
Délka denního světla
Délka dne
Tomorrow will be .
, % of the Moon is Illuminated

Dnešní extrémy

State Highs State Lows

Community

WunderPhotos

Upload Photos

1,942,602 snímků staženo!

WunderBlog® & News

Nearby

Kvalita ovzduší

  Kvalita ovzduší Index kvality ovzduší Polutant
Not available.

Výška sněhu

Station Hloubka Nadmořská výška

Seizmická činnost

Město Distance Mag. Čas & datum
Minimální zobrazený rozsah je 2.5.

Pobřežní teplota vody

Lokalita Teplota

Stations

Poblíž povětrnostní stanice

Lokace stanice Tepl. Ochlazování větrem Rosný bod Vlhkost Vítr Precip. Výška Čas hlášení Typ
                   

Watches & Warnings

There are currently no watches in effect.